TimeEST,TemperatureF,Dew PointF,Humidity,Sea Level PressureIn,VisibilityMPH,Wind Direction,Wind SpeedMPH,Gust SpeedMPH,PrecipitationIn,Events,Conditions,WindDirDegrees,DateUTC
12:53 AM,30.0,18.0,61,30.12,10.0,SSW,4.6,-,N/A,,Clear,200,2012-12-23 05:53:00
1:53 AM,30.0,16.0,56,30.11,10.0,SSW,4.6,-,N/A,,Clear,200,2012-12-23 06:53:00
2:53 AM,30.0,16.0,56,30.11,10.0,SSW,4.6,-,N/A,,Clear,200,2012-12-23 07:53:00
3:53 AM,30.0,16.0,56,30.10,10.0,SSW,5.8,-,N/A,,Clear,210,2012-12-23 08:53:00
4:53 AM,32.0,16.0,52,30.08,10.0,Variable,5.8,-,N/A,,Clear,0,2012-12-23 09:53:00
5:53 AM,33.1,17.1,52,30.06,10.0,SSW,5.8,-,N/A,,Clear,200,2012-12-23 10:53:00
6:53 AM,34.0,18.0,52,30.06,10.0,SSW,6.9,-,N/A,,Clear,210,2012-12-23 11:53:00
7:53 AM,35.1,19.9,54,30.05,10.0,Variable,5.8,-,N/A,,Clear,0,2012-12-23 12:53:00
8:53 AM,37.0,21.0,52,30.05,10.0,Variable,3.5,-,N/A,,Overcast,0,2012-12-23 13:53:00
9:53 AM,39.9,24.1,53,30.06,10.0,SSW,4.6,-,N/A,,Mostly Cloudy,210,2012-12-23 14:53:00
10:53 AM,44.1,25.0,47,30.05,10.0,Variable,4.6,-,N/A,,Overcast,0,2012-12-23 15:53:00
11:53 AM,48.0,26.1,42,30.02,10.0,SW,8.1,-,N/A,,Overcast,230,2012-12-23 16:53:00
12:53 PM,48.0,26.1,42,30.00,10.0,Variable,4.6,-,N/A,,Overcast,0,2012-12-23 17:53:00
1:53 PM,50.0,28.0,43,29.98,10.0,Variable,3.5,-,N/A,,Scattered Clouds,0,2012-12-23 18:53:00
2:53 PM,52.0,28.0,40,29.96,10.0,SSW,5.8,-,N/A,,Scattered Clouds,210,2012-12-23 19:53:00
3:53 PM,51.1,28.9,43,29.96,10.0,Variable,4.6,-,N/A,,Scattered Clouds,0,2012-12-23 20:53:00
4:53 PM,48.9,28.9,46,29.96,10.0,Variable,3.5,-,N/A,,Mostly Cloudy,0,2012-12-23 21:53:00
5:53 PM,46.9,30.9,54,29.97,10.0,Variable,3.5,-,N/A,,Overcast,0,2012-12-23 22:53:00
6:53 PM,46.0,32.0,58,29.99,10.0,SSW,4.6,-,N/A,,Clear,210,2012-12-23 23:53:00
7:53 PM,44.1,34.0,68,29.99,10.0,Calm,Calm,-,N/A,,Clear,0,2012-12-24 00:53:00
8:49 PM,44.6,35.6,71,29.99,10.0,SW,4.6,-,N/A,,Mostly Cloudy,230,2012-12-24 01:49:00
8:53 PM,44.1,35.1,71,30.00,10.0,Variable,4.6,-,N/A,,Mostly Cloudy,0,2012-12-24 01:53:00
9:46 PM,44.6,35.6,71,29.98,10.0,Calm,Calm,-,N/A,,Overcast,0,2012-12-24 02:46:00
9:53 PM,44.1,35.1,71,29.99,10.0,Variable,3.5,-,N/A,,Overcast,0,2012-12-24 02:53:00
10:53 PM,44.1,37.0,76,29.98,10.0,Calm,Calm,-,N/A,,Overcast,0,2012-12-24 03:53:00
11:53 PM,44.1,36.0,73,29.96,10.0,Calm,Calm,-,N/A,,Overcast,0,2012-12-24 04:53:00